createdAt,value
2022-12-25T00:00:41.153Z,101578.28
2022-12-25T00:03:08.370Z,101577.97
2022-12-25T00:05:38.169Z,101575.19
2022-12-25T00:08:04.900Z,101582.47
2022-12-25T00:10:31.617Z,101579.66
2022-12-25T00:12:57.956Z,101574.88
2022-12-25T00:15:24.316Z,101571.22
2022-12-25T00:17:50.725Z,101569.13
2022-12-25T00:20:17.152Z,101568.09
2022-12-25T00:22:43.560Z,101566.19
2022-12-25T00:25:10.404Z,101567.81
2022-12-25T00:27:37.838Z,101573.69
2022-12-25T00:30:07.726Z,101577.91
2022-12-25T00:32:37.546Z,101565.91
2022-12-25T00:35:05.545Z,101562.16
2022-12-25T00:37:31.953Z,101564.47
2022-12-25T00:39:58.309Z,101558.94
2022-12-25T00:42:26.860Z,101561.28
2022-12-25T00:44:53.334Z,101558.75
2022-12-25T00:47:19.803Z,101565.47
2022-12-25T00:49:46.363Z,101574.31
2022-12-25T00:52:12.789Z,101571.38
2022-12-25T00:54:39.320Z,101563.19
2022-12-25T00:57:05.759Z,101568.03
2022-12-25T00:59:34.087Z,101564.50
2022-12-25T01:02:21.119Z,101573.28
2022-12-25T01:04:47.774Z,101573.22
2022-12-25T01:07:14.191Z,101566.91
2022-12-25T01:09:59.349Z,101564.28
2022-12-25T01:12:25.778Z,101563.16
2022-12-25T01:14:52.237Z,101564.28
2022-12-25T01:17:18.640Z,101586.03
2022-12-25T01:19:44.985Z,101567.34
2022-12-25T01:22:11.421Z,101576.91
2022-12-25T01:24:37.768Z,101577.97
2022-12-25T01:27:04.299Z,101580.59
2022-12-25T01:29:30.801Z,101575.88
2022-12-25T01:31:57.253Z,101582.81
2022-12-25T01:34:23.739Z,101589.03
2022-12-25T01:36:50.137Z,101592.56
2022-12-25T01:39:16.548Z,101588.47
2022-12-25T01:41:42.905Z,101586.81
2022-12-25T01:44:34.876Z,101577.97
2022-12-25T01:47:01.980Z,101579.00
2022-12-25T01:49:28.976Z,101574.78
2022-12-25T01:52:24.459Z,101576.59
2022-12-25T01:54:58.177Z,101573.28
2022-12-25T01:57:31.969Z,101578.03
2022-12-25T02:00:00.744Z,101589.16
2022-12-25T02:02:28.538Z,101583.81
2022-12-25T02:05:03.056Z,101595.16
2022-12-25T02:07:33.574Z,101589.44
2022-12-25T02:09:59.983Z,101589.88
2022-12-25T02:12:30.136Z,101585.53
2022-12-25T02:15:04.859Z,101587.53
2022-12-25T02:17:44.164Z,101581.00
2022-12-25T02:20:32.418Z,101582.22
2022-12-25T02:23:32.212Z,101587.88
2022-12-25T02:26:18.080Z,101586.38
2022-12-25T02:29:05.896Z,101577.56
2022-12-25T02:31:42.269Z,101575.88
2022-12-25T02:34:19.086Z,101578.59
2022-12-25T02:36:50.381Z,101576.25
2022-12-25T02:39:44.358Z,101582.66
2022-12-25T02:42:21.175Z,101590.31
2022-12-25T02:45:08.350Z,101589.75
2022-12-25T02:47:55.310Z,101579.44
2022-12-25T02:50:41.131Z,101573.09
2022-12-25T02:53:28.299Z,101569.31
2022-12-25T02:56:15.066Z,101572.31
2022-12-25T02:59:02.325Z,101561.63
2022-12-25T03:01:49.611Z,101555.75
2022-12-25T03:04:40.352Z,101557.03
2022-12-25T03:07:13.274Z,101541.53
2022-12-25T03:10:24.390Z,101529.91
2022-12-25T03:13:14.692Z,101528.13
2022-12-25T03:15:59.704Z,101512.53
2022-12-25T03:18:28.269Z,101519.28
2022-12-25T03:21:13.921Z,101513.81
2022-12-25T03:24:02.229Z,101513.63
2022-12-25T03:26:48.087Z,101506.09
2022-12-25T03:29:37.180Z,101505.69
2022-12-25T03:32:37.679Z,101515.56
2022-12-25T03:35:44.226Z,101510.00
2022-12-25T03:38:41.312Z,101515.16
2022-12-25T03:41:59.551Z,101513.91
2022-12-25T03:44:56.377Z,101520.00
2022-12-25T03:47:35.019Z,101514.13
2022-12-25T03:50:35.153Z,101516.41
2022-12-25T03:53:23.922Z,101516.09
2022-12-25T03:56:09.758Z,101514.53
2022-12-25T03:58:54.570Z,101519.81
2022-12-25T04:01:39.453Z,101513.47
2022-12-25T04:04:24.608Z,101509.06
2022-12-25T04:07:09.516Z,101503.28
2022-12-25T04:09:54.450Z,101502.31
2022-12-25T04:12:39.221Z,101501.69
2022-12-25T04:15:24.690Z,101502.09
2022-12-25T04:18:13.017Z,101497.97
2022-12-25T04:20:57.877Z,101507.75
2022-12-25T04:26:37.746Z,101506.69
2022-12-25T04:29:22.882Z,101517.63
2022-12-25T04:32:07.858Z,101514.22
2022-12-25T04:34:52.759Z,101520.09
2022-12-25T04:37:19.198Z,101514.09
2022-12-25T04:39:45.674Z,101517.66
2022-12-25T04:42:12.100Z,101519.75
2022-12-25T04:44:38.462Z,101511.88
2022-12-25T04:47:10.897Z,101517.31
2022-12-25T04:49:37.918Z,101520.25
2022-12-25T04:52:04.413Z,101508.88
2022-12-25T04:54:30.989Z,101505.34
2022-12-25T04:56:57.480Z,101506.69
2022-12-25T04:59:24.002Z,101507.75
2022-12-25T05:01:50.431Z,101516.03
2022-12-25T05:04:16.883Z,101490.94
2022-12-25T05:06:43.225Z,101481.56
2022-12-25T05:09:09.735Z,101489.53
2022-12-25T05:11:36.130Z,101502.75
2022-12-25T05:14:02.522Z,101500.88
2022-12-25T05:16:28.981Z,101501.06
2022-12-25T05:18:55.627Z,101492.66
2022-12-25T05:21:22.284Z,101476.91
2022-12-25T05:23:52.842Z,101461.16
2022-12-25T05:26:22.454Z,101471.66
2022-12-25T05:28:49.104Z,101463.78
2022-12-25T05:31:16.110Z,101464.72
2022-12-25T05:33:42.543Z,101470.06
2022-12-25T05:36:10.739Z,101461.16
2022-12-25T05:38:38.120Z,101452.88
2022-12-25T05:41:05.251Z,101450.25
2022-12-25T05:43:31.575Z,101450.16
2022-12-25T05:45:58.111Z,101450.16
2022-12-25T05:48:24.474Z,101455.50
2022-12-25T05:50:50.822Z,101457.94
2022-12-25T05:53:17.298Z,101464.13
2022-12-25T05:55:43.802Z,101454.47
2022-12-25T05:58:11.928Z,101451.75
2022-12-25T06:00:38.868Z,101461.41
2022-12-25T06:03:05.317Z,101465.59
2022-12-25T06:05:32.259Z,101468.59
2022-12-25T06:07:58.904Z,101459.53
2022-12-25T06:10:25.387Z,101454.94
2022-12-25T06:12:51.729Z,101442.44
2022-12-25T06:15:18.135Z,101437.00
2022-12-25T06:17:44.499Z,101434.16
2022-12-25T06:20:11.052Z,101427.03
2022-12-25T06:22:37.522Z,101428.59
2022-12-25T06:25:04.156Z,101426.81
2022-12-25T06:27:30.620Z,101439.00
2022-12-25T06:29:56.982Z,101438.06
2022-12-25T06:32:23.348Z,101440.28
2022-12-25T06:34:49.683Z,101431.03
2022-12-25T06:37:16.136Z,101439.66
2022-12-25T06:39:42.513Z,101433.13
2022-12-25T06:42:09.055Z,101425.66
2022-12-25T06:44:35.458Z,101422.84
2022-12-25T06:47:01.884Z,101415.69
2022-12-25T06:49:28.387Z,101406.66
2022-12-25T06:51:54.726Z,101418.00
2022-12-25T06:54:21.164Z,101423.88
2022-12-25T06:56:48.692Z,101413.16
2022-12-25T06:59:15.153Z,101410.53
2022-12-25T07:01:48.067Z,101404.13
2022-12-25T07:04:23.557Z,101398.66
2022-12-25T07:06:49.958Z,101395.50
2022-12-25T07:09:16.461Z,101396.25
2022-12-25T07:11:42.840Z,101398.13
2022-12-25T07:14:23.238Z,101393.63
2022-12-25T07:16:50.575Z,101399.81
2022-12-25T07:19:17.191Z,101397.16
2022-12-25T07:21:43.500Z,101411.06
2022-12-25T07:24:10.761Z,101418.84
2022-12-25T07:26:37.226Z,101419.56
2022-12-25T07:29:03.574Z,101427.47
2022-12-25T07:31:30.125Z,101419.56
2022-12-25T07:33:56.528Z,101421.34
2022-12-25T07:36:22.919Z,101426.41
2022-12-25T07:38:49.964Z,101419.25
2022-12-25T07:41:16.897Z,101413.88
2022-12-25T07:43:43.527Z,101413.78
2022-12-25T07:46:10.748Z,101420.94
2022-12-25T07:48:37.352Z,101426.41
2022-12-25T07:51:06.116Z,101433.34
2022-12-25T07:53:33.085Z,101441.44
2022-12-25T07:56:05.916Z,101439.66
2022-12-25T07:58:33.177Z,101433.56
2022-12-25T08:01:08.214Z,101427.34
2022-12-25T08:03:35.421Z,101427.47
2022-12-25T08:06:04.314Z,101431.69
2022-12-25T08:08:31.124Z,101438.63
2022-12-25T08:10:57.603Z,101437.66
2022-12-25T08:13:23.986Z,101439.34
2022-12-25T08:15:50.403Z,101449.84
2022-12-25T08:18:16.803Z,101453.31
2022-12-25T08:20:43.179Z,101456.59
2022-12-25T08:23:09.562Z,101463.53
2022-12-25T08:25:36.151Z,101468.06
2022-12-25T08:28:02.612Z,101464.47
2022-12-25T08:30:29.047Z,101457.63
2022-12-25T08:32:55.811Z,101462.81
2022-12-25T08:35:22.246Z,101457.53
2022-12-25T08:37:48.846Z,101453.22
2022-12-25T08:40:15.300Z,101453.97
2022-12-25T08:42:41.713Z,101460.19
2022-12-25T08:45:08.736Z,101436.50
2022-12-25T08:47:35.104Z,101434.72
2022-12-25T08:50:01.613Z,101429.34
2022-12-25T08:52:28.928Z,101418.84
2022-12-25T08:54:55.285Z,101422.31
2022-12-25T08:57:21.606Z,101421.34
2022-12-25T08:59:47.943Z,101424.69
2022-12-25T09:02:19.323Z,101434.28
2022-12-25T09:04:46.499Z,101419.34
2022-12-25T09:07:13.011Z,101430.72
2022-12-25T09:09:39.814Z,101428.91
2022-12-25T09:12:06.335Z,101416.50
2022-12-25T09:14:32.687Z,101419.84
2022-12-25T09:16:59.048Z,101424.19
2022-12-25T09:19:25.392Z,101431.84
2022-12-25T09:21:51.802Z,101447.41
2022-12-25T09:24:18.169Z,101441.28
2022-12-25T09:26:44.560Z,101435.84
2022-12-25T09:29:10.951Z,101432.13
2022-12-25T09:31:37.428Z,101443.63
2022-12-25T09:34:03.826Z,101443.63
2022-12-25T09:36:30.286Z,101446.13
2022-12-25T09:38:56.721Z,101459.00
2022-12-25T09:41:28.956Z,101459.00
2022-12-25T09:44:18.969Z,101453.50
2022-12-25T09:46:53.805Z,101437.72
2022-12-25T09:49:32.618Z,101431.41
2022-12-25T09:52:05.024Z,101428.66
2022-12-25T09:54:46.544Z,101427.72
2022-12-25T09:57:14.486Z,101426.03
2022-12-25T09:59:44.646Z,101441.94
2022-12-25T10:02:33.520Z,101416.69
2022-12-25T10:05:25.520Z,101413.31
2022-12-25T10:08:23.258Z,101413.41
2022-12-25T10:11:04.679Z,101409.22
2022-12-25T10:13:56.523Z,101423.28
2022-12-25T10:16:59.843Z,101414.56
2022-12-25T10:19:47.533Z,101410.38
2022-12-25T10:22:27.219Z,101403.56
2022-12-25T10:24:57.964Z,101396.50
2022-12-25T10:27:44.963Z,101406.28
2022-12-25T10:30:20.832Z,101401.00
2022-12-25T10:32:48.106Z,101393.97
2022-12-25T10:35:17.886Z,101391.44
2022-12-25T10:37:48.656Z,101397.53
2022-12-25T10:40:26.414Z,101386.91
2022-12-25T10:42:57.376Z,101381.56
2022-12-25T10:45:23.760Z,101391.25
2022-12-25T10:47:58.552Z,101377.03
2022-12-25T10:50:28.539Z,101382.16
2022-12-25T10:53:00.791Z,101384.06
2022-12-25T10:55:29.495Z,101361.34
2022-12-25T10:57:57.823Z,101358.84
2022-12-25T11:00:29.846Z,101339.56
2022-12-25T11:02:57.643Z,101338.63
2022-12-25T11:05:28.453Z,101340.31
2022-12-25T11:07:56.081Z,101326.22
2022-12-25T11:10:30.911Z,101333.97
2022-12-25T11:12:58.538Z,101321.53
2022-12-25T11:15:33.845Z,101320.72
2022-12-25T11:18:00.360Z,101316.28
2022-12-25T11:20:27.173Z,101319.78
2022-12-25T11:22:53.583Z,101308.53
2022-12-25T11:25:25.563Z,101304.94
2022-12-25T11:28:03.660Z,101296.19
2022-12-25T11:30:32.988Z,101290.84
2022-12-25T11:33:05.052Z,101298.53
2022-12-25T11:35:37.164Z,101283.47
2022-12-25T11:38:03.780Z,101263.91
2022-12-25T11:40:44.268Z,101261.97
2022-12-25T11:43:29.724Z,101256.38
2022-12-25T11:46:38.463Z,101241.94
2022-12-25T11:49:08.260Z,101247.59
2022-12-25T11:51:39.190Z,101253.69
2022-12-25T11:54:25.302Z,101242.44
2022-12-25T11:56:52.226Z,101246.97
2022-12-25T11:59:34.827Z,101250.53
2022-12-25T12:02:20.425Z,101259.16
2022-12-25T12:04:55.977Z,101260.25
2022-12-25T12:07:29.086Z,101259.63
2022-12-25T12:10:17.394Z,101251.72
2022-12-25T12:13:04.599Z,101249.09
2022-12-25T12:15:42.497Z,101256.06
2022-12-25T12:18:27.194Z,101250.66
2022-12-25T12:21:02.842Z,101235.72
2022-12-25T12:23:32.669Z,101235.59
2022-12-25T12:25:59.673Z,101237.41
2022-12-25T12:28:36.849Z,101231.41
2022-12-25T12:31:07.861Z,101234.16
2022-12-25T12:33:42.756Z,101227.44
2022-12-25T12:36:14.161Z,101228.53
2022-12-25T12:38:43.511Z,101219.88
2022-12-25T12:41:13.772Z,101208.53
2022-12-25T12:43:48.218Z,101209.38
2022-12-25T12:46:30.135Z,101198.97
2022-12-25T12:49:29.584Z,101200.75
2022-12-25T12:52:23.639Z,101211.28
2022-12-25T12:55:02.663Z,101217.38
2022-12-25T12:57:33.128Z,101214.88
2022-12-25T13:00:08.459Z,101220.25
2022-12-25T13:02:58.767Z,101215.19
2022-12-25T13:05:38.025Z,101206.47
2022-12-25T13:08:23.231Z,101204.78
2022-12-25T13:11:03.073Z,101192.56
2022-12-25T13:13:39.605Z,101183.72
2022-12-25T13:16:06.862Z,101182.06
2022-12-25T13:18:33.973Z,101173.22
2022-12-25T13:21:04.814Z,101167.03
2022-12-25T13:23:37.370Z,101163.53
2022-12-25T13:26:05.388Z,101167.72
2022-12-25T13:28:34.346Z,101167.72
2022-12-25T13:31:25.490Z,101163.31
2022-12-25T13:34:13.896Z,101170.38
2022-12-25T13:36:40.418Z,101156.38
2022-12-25T13:39:16.007Z,101147.75
2022-12-25T13:42:04.873Z,101153.88
2022-12-25T13:44:41.824Z,101152.16
2022-12-25T13:47:16.554Z,101141.56
2022-12-25T13:49:44.888Z,101136.38
2022-12-25T13:52:14.392Z,101150.38
2022-12-25T13:55:01.589Z,101153.88
2022-12-25T13:57:38.692Z,101162.59
2022-12-25T14:00:16.501Z,101145.84
2022-12-25T14:02:43.019Z,101146.81
2022-12-25T14:05:42.118Z,101151.25
2022-12-25T14:08:15.635Z,101135.34
2022-12-25T14:10:44.606Z,101142.38
2022-12-25T14:13:14.444Z,101142.25
2022-12-25T14:15:41.992Z,101134.50
2022-12-25T14:18:15.841Z,101144.06
2022-12-25T14:20:58.576Z,101150.28
2022-12-25T14:23:26.150Z,101147.66
2022-12-25T14:25:52.791Z,101145.97
2022-12-25T14:28:24.575Z,101150.28
2022-12-25T14:30:51.575Z,101139.75
2022-12-25T14:33:22.861Z,101139.75
2022-12-25T14:35:51.062Z,101146.81
2022-12-25T14:38:29.135Z,101146.91
2022-12-25T14:41:02.481Z,101143.34
2022-12-25T14:43:30.389Z,101121.44
2022-12-25T14:45:59.595Z,101120.59
2022-12-25T14:48:29.135Z,101115.34
2022-12-25T14:50:55.474Z,101117.13
2022-12-25T14:53:24.609Z,101114.50
2022-12-25T14:55:54.030Z,101105.78
2022-12-25T14:58:23.746Z,101123.34
2022-12-25T15:00:58.617Z,101119.75
2022-12-25T15:03:45.360Z,101115.47
2022-12-25T15:06:21.053Z,101125.03
2022-12-25T15:09:06.493Z,101132.09
2022-12-25T15:11:33.049Z,101133.75
2022-12-25T15:13:59.474Z,101131.13
2022-12-25T15:16:29.603Z,101121.56
2022-12-25T15:18:56.641Z,101128.50
2022-12-25T15:21:28.704Z,101136.38
2022-12-25T15:23:57.205Z,101133.88
2022-12-25T15:26:24.595Z,101138.31
2022-12-25T15:28:51.207Z,101139.13
2022-12-25T15:31:26.504Z,101129.44
2022-12-25T15:33:58.852Z,101130.28
2022-12-25T15:36:26.464Z,101126.06
2022-12-25T15:38:52.926Z,101133.03
2022-12-25T15:41:42.656Z,101136.59
2022-12-25T15:44:11.875Z,101121.78
2022-12-25T15:46:39.025Z,101121.66
2022-12-25T15:49:05.668Z,101112.22
2022-12-25T15:51:32.136Z,101118.31
2022-12-25T15:53:59.568Z,101113.06
2022-12-25T15:56:26.791Z,101106.97
2022-12-25T15:58:53.342Z,101111.38
2022-12-25T16:01:21.055Z,101103.63
2022-12-25T16:03:48.760Z,101094.97
2022-12-25T16:06:17.183Z,101084.47
2022-12-25T16:08:44.342Z,101082.91
2022-12-25T16:11:11.248Z,101096.06
2022-12-25T16:13:37.689Z,101098.81
2022-12-25T16:16:05.009Z,101101.66
2022-12-25T16:18:31.461Z,101106.22
2022-12-25T16:20:59.193Z,101107.28
2022-12-25T16:23:25.812Z,101111.59
2022-12-25T16:25:52.286Z,101102.88
2022-12-25T16:28:18.598Z,101113.97
2022-12-25T16:30:45.142Z,101110.63
2022-12-25T16:33:11.728Z,101099.41
2022-12-25T16:35:38.318Z,101095.94
2022-12-25T16:38:04.772Z,101090.44
2022-12-25T16:40:31.647Z,101084.47
2022-12-25T16:42:58.116Z,101086.97
2022-12-25T16:45:24.447Z,101074.06
2022-12-25T16:47:50.799Z,101067.94
2022-12-25T16:50:17.331Z,101057.41
2022-12-25T16:52:43.735Z,101073.19
2022-12-25T16:55:10.157Z,101076.69
2022-12-25T16:57:36.656Z,101076.78
2022-12-25T17:00:03.381Z,101075.13
2022-12-25T17:02:30.051Z,101078.72
2022-12-25T17:04:56.612Z,101075.25
2022-12-25T17:07:23.027Z,101075.13
2022-12-25T17:09:49.791Z,101076.06
2022-12-25T17:12:16.722Z,101074.16
2022-12-25T17:14:43.336Z,101069.84
2022-12-25T17:17:10.052Z,101067.22
2022-12-25T17:19:36.959Z,101069.53
2022-12-25T17:22:03.533Z,101069.66
2022-12-25T17:24:29.937Z,101081.84
2022-12-25T17:26:56.498Z,101078.47
2022-12-25T17:29:42.444Z,101077.75
2022-12-25T17:32:09.982Z,101081.34
2022-12-25T17:34:37.550Z,101078.72
2022-12-25T17:37:04.746Z,101074.28
2022-12-25T17:39:31.455Z,101075.38
2022-12-25T17:41:57.851Z,101071.78
2022-12-25T17:44:24.445Z,101066.53
2022-12-25T17:46:51.132Z,101072.72
2022-12-25T17:49:20.528Z,101074.63
2022-12-25T17:51:47.306Z,101084.22
2022-12-25T17:54:14.459Z,101085.13
2022-12-25T17:56:40.803Z,101079.03
2022-12-25T17:59:08.348Z,101091.34
2022-12-25T18:01:37.504Z,101077.50
2022-12-25T18:04:06.104Z,101075.81
2022-12-25T18:06:35.714Z,101076.78
2022-12-25T18:09:05.992Z,101066.25
2022-12-25T18:11:33.180Z,101063.63
2022-12-25T18:14:02.309Z,101066.34
2022-12-25T18:16:32.608Z,101055.97
2022-12-25T18:18:59.608Z,101063.00
2022-12-25T18:21:26.819Z,101050.84
2022-12-25T18:23:53.196Z,101054.28
2022-12-25T18:26:20.561Z,101043.06
2022-12-25T18:28:48.821Z,101052.75
2022-12-25T18:31:21.520Z,101050.94
2022-12-25T18:33:48.630Z,101060.50
2022-12-25T18:36:17.859Z,101076.28
2022-12-25T18:38:44.281Z,101072.69
2022-12-25T18:41:11.051Z,101070.06
2022-12-25T18:43:52.456Z,101064.94
2022-12-25T18:46:22.170Z,101070.19
2022-12-25T18:48:48.839Z,101077.25
2022-12-25T18:51:15.241Z,101078.19
2022-12-25T18:53:42.014Z,101079.03
2022-12-25T18:56:12.820Z,101072.06
2022-12-25T18:58:41.480Z,101074.00
2022-12-25T19:01:14.814Z,101068.59
2022-12-25T19:03:42.035Z,101062.63
2022-12-25T19:06:08.905Z,101061.69
2022-12-25T19:08:35.630Z,101050.47
2022-12-25T19:11:08.083Z,101060.00
2022-12-25T19:13:34.899Z,101060.00
2022-12-25T19:16:01.357Z,101060.97
2022-12-25T19:18:27.977Z,101061.81
2022-12-25T19:20:54.352Z,101063.47
2022-12-25T19:23:20.754Z,101050.47
2022-12-25T19:25:47.678Z,101052.97
2022-12-25T19:28:14.042Z,101048.53
2022-12-25T19:30:40.464Z,101054.03
2022-12-25T19:33:09.981Z,101054.88
2022-12-25T19:35:40.699Z,101052.13
2022-12-25T19:38:07.311Z,101060.00
2022-12-25T19:40:38.264Z,101055.47
2022-12-25T19:43:05.136Z,101061.56
2022-12-25T19:45:31.682Z,101068.72
2022-12-25T19:47:58.215Z,101071.47
2022-12-25T19:50:30.691Z,101078.41
2022-12-25T19:52:57.099Z,101078.53
2022-12-25T19:55:23.512Z,101069.56
2022-12-25T19:57:50.484Z,101083.44
2022-12-25T20:00:17.337Z,101081.53
2022-12-25T20:02:43.871Z,101076.03
2022-12-25T20:05:10.354Z,101076.03
2022-12-25T20:07:36.681Z,101077.84
2022-12-25T20:10:03.094Z,101082.97
2022-12-25T20:12:29.424Z,101078.56
2022-12-25T20:14:56.115Z,101081.06
2022-12-25T20:17:22.575Z,101082.97
2022-12-25T20:19:48.920Z,101079.41
2022-12-25T20:22:15.386Z,101078.44
2022-12-25T20:24:41.716Z,101082.75
2022-12-25T20:27:08.086Z,101088.00
2022-12-25T20:29:34.515Z,101084.66
2022-12-25T20:32:00.995Z,101084.41
2022-12-25T20:34:27.405Z,101080.84
2022-12-25T20:36:53.778Z,101078.94
2022-12-25T20:39:20.126Z,101081.56
2022-12-25T20:41:47.531Z,101085.03
2022-12-25T20:44:14.011Z,101075.47
2022-12-25T20:46:40.393Z,101078.94
2022-12-25T20:49:06.829Z,101077.25
2022-12-25T20:51:33.742Z,101084.22
2022-12-25T20:54:00.858Z,101086.84
2022-12-25T20:56:29.892Z,101085.88
2022-12-25T20:58:59.052Z,101081.47
2022-12-25T21:01:26.913Z,101082.28
2022-12-25T21:03:54.028Z,101083.97
2022-12-25T21:06:20.978Z,101094.47
2022-12-25T21:08:47.535Z,101092.81
2022-12-25T21:11:15.517Z,101096.16
2022-12-25T21:13:43.295Z,101091.59
2022-12-25T21:16:14.197Z,101090.69
2022-12-25T21:18:40.670Z,101093.19
2022-12-25T21:21:08.016Z,101097.38
2022-12-25T21:23:36.522Z,101097.38
2022-12-25T21:26:09.939Z,101099.03
2022-12-25T21:28:36.351Z,101100.81
2022-12-25T21:31:04.635Z,101101.56
2022-12-25T21:33:49.504Z,101105.13
2022-12-25T21:36:15.839Z,101117.34
2022-12-25T21:38:42.189Z,101126.78
2022-12-25T21:41:10.866Z,101130.13
2022-12-25T21:43:38.815Z,101125.63
2022-12-25T21:46:11.592Z,101134.09
2022-12-25T21:48:39.510Z,101133.13
2022-12-25T21:51:31.004Z,101133.13
2022-12-25T21:54:00.793Z,101129.44
2022-12-25T21:56:28.946Z,101119.56
2022-12-25T21:58:55.362Z,101125.88
2022-12-25T22:01:21.871Z,101127.56
2022-12-25T22:03:48.340Z,101127.31
2022-12-25T22:06:33.325Z,101132.38
2022-12-25T22:08:59.698Z,101135.22
2022-12-25T22:11:45.380Z,101137.84
2022-12-25T22:14:51.446Z,101129.94
2022-12-25T22:17:41.666Z,101138.47
2022-12-25T22:20:10.907Z,101144.69
2022-12-25T22:22:37.408Z,101139.28
2022-12-25T22:25:05.779Z,101138.34
2022-12-25T22:27:33.890Z,101146.22
2022-12-25T22:30:00.859Z,101142.75
2022-12-25T22:32:28.230Z,101143.59
2022-12-25T22:34:54.645Z,101145.50
2022-12-25T22:37:21.079Z,101126.16
2022-12-25T22:39:47.537Z,101122.44
2022-12-25T22:42:14.074Z,101125.94
2022-12-25T22:44:40.848Z,101105.81
2022-12-25T22:47:07.407Z,101110.84
2022-12-25T22:49:33.967Z,101112.78
2022-12-25T22:52:00.342Z,101124.97
2022-12-25T22:54:30.960Z,101114.44
2022-12-25T22:56:59.253Z,101091.47
2022-12-25T22:59:26.005Z,101105.59
2022-12-25T23:01:53.212Z,101116.13
2022-12-25T23:04:19.932Z,101117.78
2022-12-25T23:06:46.911Z,101135.25
2022-12-25T23:09:20.593Z,101126.38
2022-12-25T23:11:50.632Z,101126.38
2022-12-25T23:14:35.661Z,101130.81
2022-12-25T23:17:02.105Z,101121.88
2022-12-25T23:19:46.849Z,101117.31
2022-12-25T23:22:32.243Z,101114.81
2022-12-25T23:25:18.230Z,101108.72
2022-12-25T23:27:45.202Z,101095.44
2022-12-25T23:30:13.757Z,101098.06
2022-12-25T23:32:40.940Z,101104.16
2022-12-25T23:35:07.699Z,101101.53
2022-12-25T23:37:34.365Z,101116.34
2022-12-25T23:40:00.743Z,101125.91
2022-12-25T23:42:27.165Z,101127.59
2022-12-25T23:44:53.557Z,101130.22
2022-12-25T23:47:19.957Z,101127.59
2022-12-25T23:49:46.376Z,101141.72
2022-12-25T23:52:12.994Z,101129.28
2022-12-25T23:54:39.533Z,101122.13
2022-12-25T23:57:06.016Z,101128.34
2022-12-25T23:59:32.581Z,101137.06
